Terminal Aerodrome Forecast
Issued by NWS

Home | Current Version | Previous Version | Text Only | Print | Product List | Glossary On
Versions: 1 2 3 4 5 6 7 8 9 10 11 12 13 14 15 16 17 18 19 20 21 22 23 24 25 26 27 28 29
000
FTUS41 KBUF 022153 AAA
TAFIAG
TAF AMD
KIAG 022153Z 0222/0318 22015G25KT P6SM BKN120
     FM030500 21016KT P6SM BKN140 WS020/22045KT
     FM030700 22016G22KT P6SM BKN140
     FM030800 22014KT P6SM VCSH BKN100 BKN250
     FM031100 22015KT 6SM -SHRA VCTS SCT025CB OVC090
     FM031600 23013KT 6SM -SHRA VCTS SCT025CB BKN040=

USA.gov is the U.S. government's official web portal to all federal, state and local government web resources and services.